Time;durP1;ratioP1;P1;durP2;ratioP2;P2;SDS_P1;SDS_P2;PMS_P1;PMS_P2;Temp;Humidity;BMP_temperature;BMP_pressure;BME280_temperature;BME280_humidity;BME280_pressure;Samples;Min_cycle;Max_cycle;Signal;HPM_P1;HPM_P2
2022/06/13 00:00:30;;;;;;;14.70;4.43;;;;;;;;;;5075247;27;20078;-78
2022/06/13 00:02:57;;;;;;;12.27;4.55;;;;;;;;;;5092709;28;20048;-78
2022/06/13 00:05:31;;;;;;;12.30;4.82;;;;;;;;;;5074189;28;20533;-77
2022/06/13 00:07:57;;;;;;;13.32;4.97;;;;;;;;;;5091669;28;20597;-78
2022/06/13 00:10:23;;;;;;;13.75;5.13;;;;;;;;;;5076610;28;20088;-78
2022/06/13 00:12:50;;;;;;;11.38;4.90;;;;;;;;;;5075091;28;20171;-78
2022/06/13 00:15:16;;;;;;;14.98;4.95;;;;;;;;;;5052977;28;1142554;-77
2022/06/13 00:17:43;;;;;;;12.95;4.60;;;;;;;;;;5104667;28;20097;-77
2022/06/13 00:20:10;;;;;;;13.45;4.43;;;;;;;;;;5085039;28;21270;-77
2022/06/13 00:22:36;;;;;;;11.45;4.55;;;;;;;;;;5085893;27;20514;-78
2022/06/13 00:25:03;;;;;;;18.25;4.97;;;;;;;;;;5074865;28;20057;-78
2022/06/13 00:27:30;;;;;;;10.15;4.53;;;;;;;;;;5072790;28;20532;-77
2022/06/13 00:29:56;;;;;;;13.00;4.72;;;;;;;;;;5104591;28;20126;-78
2022/06/13 00:32:23;;;;;;;12.75;5.00;;;;;;;;;;5097192;27;20518;-78
2022/06/13 00:34:49;;;;;;;9.55;5.03;;;;;;;;;;5090912;28;20538;-78
2022/06/13 00:37:15;;;;;;;10.32;5.15;;;;;;;;;;5072635;28;20577;-78
2022/06/13 00:39:42;;;;;;;11.30;4.95;;;;;;;;;;5102036;27;20147;-78
2022/06/13 00:42:08;;;;;;;17.52;5.47;;;;;;;;;;5104194;28;20504;-78
2022/06/13 00:44:36;;;;;;;12.23;4.82;;;;;;;;;;5099971;27;20139;-78
2022/06/13 00:47:03;;;;;;;13.43;4.97;;;;;;;;;;5073474;28;20060;-78
2022/06/13 00:49:37;;;;;;;13.73;4.68;;;;;;;;;;5096588;28;20533;-78
2022/06/13 00:52:11;;;;;;;13.88;4.93;;;;;;;;;;5085779;28;20060;-78
2022/06/13 00:54:39;;;;;;;13.13;5.07;;;;;;;;;;5078779;28;20052;-78
2022/06/13 00:57:07;;;;;;;12.90;4.63;;;;;;;;;;5078488;28;20131;-78
2022/06/13 00:59:36;;;;;;;13.65;5.13;;;;;;;;;;5082787;28;20044;-78
2022/06/13 01:02:03;;;;;;;16.35;5.22;;;;;;;;;;5093683;27;20056;-78
2022/06/13 01:04:30;;;;;;;16.17;5.68;;;;;;;;;;5084124;28;20059;-78
2022/06/13 01:06:57;;;;;;;15.70;5.15;;;;;;;;;;5085987;28;20066;-78
2022/06/13 01:11:16;;;;;;;13.90;5.13;;;;;;;;;;5084880;28;20070;-78
2022/06/13 01:12:10;;;;;;;11.68;5.00;;;;;;;;;;5086647;27;20059;-78
2022/06/13 01:14:56;;;;;;;14.35;5.20;;;;;;;;;;5072347;28;20057;-78
2022/06/13 01:17:35;;;;;;;13.38;5.65;;;;;;;;;;4999110;28;20576;-78
2022/06/13 01:20:21;;;;;;;14.20;4.70;;;;;;;;;;5076586;28;20079;-78
2022/06/13 01:23:06;;;;;;;13.27;4.68;;;;;;;;;;5085035;28;20044;-78
2022/06/13 01:25:51;;;;;;;15.65;5.38;;;;;;;;;;5092887;28;20538;-78
2022/06/13 01:28:18;;;;;;;13.77;5.20;;;;;;;;;;5073162;28;20620;-78
2022/06/13 01:30:47;;;;;;;13.68;5.60;;;;;;;;;;5080422;27;20040;-78
2022/06/13 01:33:13;;;;;;;17.00;5.50;;;;;;;;;;5082608;28;20066;-78
2022/06/13 01:35:48;;;;;;;12.23;5.28;;;;;;;;;;5075935;28;20056;-78
2022/06/13 01:38:33;;;;;;;14.50;5.53;;;;;;;;;;5074784;28;20054;-78
2022/06/13 01:41:18;;;;;;;12.63;6.05;;;;;;;;;;5086244;27;20055;-78
2022/06/13 01:43:52;;;;;;;13.27;5.07;;;;;;;;;;5073887;28;20055;-78
2022/06/13 01:46:33;;;;;;;16.23;5.63;;;;;;;;;;5096466;28;20055;-78
2022/06/13 01:49:10;;;;;;;13.82;5.65;;;;;;;;;;5072539;28;20052;-78
2022/06/13 01:51:49;;;;;;;19.70;5.80;;;;;;;;;;5076711;27;20443;-78
2022/06/13 01:54:22;;;;;;;13.32;5.90;;;;;;;;;;5095148;28;20515;-78
2022/06/13 01:56:58;;;;;;;17.38;6.50;;;;;;;;;;5079923;28;20172;-78
2022/06/13 01:59:44;;;;;;;15.95;6.00;;;;;;;;;;5078516;28;20066;-78
2022/06/13 02:02:17;;;;;;;15.10;6.07;;;;;;;;;;5085241;28;20052;-78
2022/06/13 02:04:45;;;;;;;14.40;6.15;;;;;;;;;;5071543;28;20135;-78
2022/06/13 02:07:18;;;;;;;14.18;6.07;;;;;;;;;;5081921;28;20537;-78
2022/06/13 02:09:58;;;;;;;14.88;6.00;;;;;;;;;;5073485;28;20044;-78
2022/06/13 02:12:27;;;;;;;21.00;6.10;;;;;;;;;;5092279;27;20045;-78
2022/06/13 02:14:58;;;;;;;17.20;6.55;;;;;;;;;;5073813;28;20063;-78
2022/06/13 02:17:28;;;;;;;17.55;6.35;;;;;;;;;;5078441;28;20066;-78
2022/06/13 02:19:57;;;;;;;15.43;6.05;;;;;;;;;;5084723;28;20056;-78
2022/06/13 02:22:28;;;;;;;20.08;6.15;;;;;;;;;;5082983;28;20052;-78
2022/06/13 02:24:58;;;;;;;13.70;5.85;;;;;;;;;;5100274;28;20052;-78
2022/06/13 02:27:27;;;;;;;20.23;6.63;;;;;;;;;;5078866;28;20080;-78
2022/06/13 02:29:56;;;;;;;13.68;6.25;;;;;;;;;;5095395;28;20052;-78
2022/06/13 02:32:44;;;;;;;13.18;6.40;;;;;;;;;;5095593;28;20052;-78
2022/06/13 02:35:16;;;;;;;15.95;6.57;;;;;;;;;;5071775;28;20056;-78
2022/06/13 02:37:45;;;;;;;15.93;5.70;;;;;;;;;;5093778;28;20131;-78
2022/06/13 02:40:16;;;;;;;18.90;6.10;;;;;;;;;;5081541;28;20052;-78
2022/06/13 02:42:50;;;;;;;19.65;6.15;;;;;;;;;;5096140;27;20962;-78
2022/06/13 02:45:22;;;;;;;17.10;6.40;;;;;;;;;;5090446;28;20055;-78
2022/06/13 02:47:51;;;;;;;18.40;6.50;;;;;;;;;;5070798;28;20083;-77
2022/06/13 02:50:21;;;;;;;15.63;6.28;;;;;;;;;;5074988;28;20178;-78
2022/06/13 02:52:57;;;;;;;14.98;5.70;;;;;;;;;;5097659;27;20157;-77
2022/06/13 02:55:24;;;;;;;14.60;5.60;;;;;;;;;;5096045;28;21009;-77
2022/06/13 02:58:12;;;;;;;16.10;6.57;;;;;;;;;;5093580;28;20107;-77
2022/06/13 03:01:01;;;;;;;12.93;5.88;;;;;;;;;;5083091;28;20052;-78
2022/06/13 03:03:39;;;;;;;13.55;5.90;;;;;;;;;;5074551;28;20507;-78
2022/06/13 03:06:19;;;;;;;14.68;5.85;;;;;;;;;;5094166;28;20049;-78
2022/06/13 03:09:03;;;;;;;11.95;6.13;;;;;;;;;;5098831;28;20052;-78
2022/06/13 03:11:39;;;;;;;14.00;5.97;;;;;;;;;;5071623;28;20102;-78
2022/06/13 03:14:28;;;;;;;20.75;6.30;;;;;;;;;;5082652;28;20055;-78
2022/06/13 03:16:57;;;;;;;15.30;6.00;;;;;;;;;;5073918;28;20063;-78
2022/06/13 03:19:38;;;;;;;18.25;6.38;;;;;;;;;;5084308;28;20135;-78
2022/06/13 03:22:09;;;;;;;18.85;5.90;;;;;;;;;;5068194;28;20068;-78
2022/06/13 03:24:43;;;;;;;15.30;6.60;;;;;;;;;;5082869;28;20850;-78
2022/06/13 03:27:13;;;;;;;15.10;5.70;;;;;;;;;;5078014;28;20566;-76
2022/06/13 03:29:45;;;;;;;14.23;6.00;;;;;;;;;;5087823;27;20058;-76
2022/06/13 03:32:15;;;;;;;13.20;6.28;;;;;;;;;;5098834;28;20123;-76
2022/06/13 03:34:44;;;;;;;16.83;7.05;;;;;;;;;;5068213;28;20059;-77
2022/06/13 03:37:15;;;;;;;17.48;6.43;;;;;;;;;;5105567;28;20139;-77
2022/06/13 03:39:41;;;;;;;;;;;;;;;;;;5075205;28;20458;-77
2022/06/13 03:42:10;;;;;;;16.58;6.30;;;;;;;;;;5083366;28;47128;-77
2022/06/13 03:44:46;;;;;;;17.02;5.93;;;;;;;;;;5091807;28;20078;-77
2022/06/13 03:47:19;;;;;;;15.82;6.20;;;;;;;;;;5105361;28;20074;-77
2022/06/13 03:49:48;;;;;;;17.13;6.57;;;;;;;;;;5079553;28;20056;-78
2022/06/13 03:52:16;;;;;;;20.13;6.78;;;;;;;;;;5092003;28;20059;-78
2022/06/13 03:54:50;;;;;;;18.27;6.57;;;;;;;;;;5074383;28;20059;-78
2022/06/13 03:57:32;;;;;;;18.40;6.90;;;;;;;;;;5102033;28;20582;-78
2022/06/13 04:00:01;;;;;;;17.58;7.25;;;;;;;;;;5078305;28;20066;-77
2022/06/13 04:02:29;;;;;;;19.45;7.07;;;;;;;;;;5090312;27;20064;-78
2022/06/13 04:04:56;;;;;;;15.15;7.22;;;;;;;;;;5100362;27;20062;-78
2022/06/13 04:07:23;;;;;;;18.88;6.85;;;;;;;;;;5101399;28;20055;-77
2022/06/13 04:09:52;;;;;;;17.50;6.82;;;;;;;;;;5100186;28;20055;-78
2022/06/13 04:12:37;;;;;;;18.33;6.97;;;;;;;;;;5079173;28;20599;-78
2022/06/13 04:15:10;;;;;;;16.42;7.03;;;;;;;;;;5095061;28;20071;-78
2022/06/13 04:17:44;;;;;;;18.88;7.38;;;;;;;;;;5104416;28;20056;-78
2022/06/13 04:20:19;;;;;;;16.15;6.85;;;;;;;;;;5084552;28;20527;-78
2022/06/13 04:22:55;;;;;;;18.60;7.32;;;;;;;;;;5097942;27;20254;-78
2022/06/13 04:25:51;;;;;;;17.80;7.63;;;;;;;;;;5087333;28;20093;-78
2022/06/13 04:28:36;;;;;;;20.45;7.22;;;;;;;;;;5061521;28;20067;-78
2022/06/13 04:31:04;;;;;;;18.63;7.38;;;;;;;;;;5078157;28;20054;-79
2022/06/13 04:33:51;;;;;;;20.73;8.35;;;;;;;;;;5074384;28;20071;-78
2022/06/13 04:36:18;;;;;;;18.02;7.30;;;;;;;;;;5095564;28;20131;-78
2022/06/13 04:38:46;;;;;;;15.90;7.88;;;;;;;;;;5101201;27;20056;-78
2022/06/13 04:41:14;;;;;;;26.27;7.60;;;;;;;;;;5076336;28;20148;-77
2022/06/13 04:43:46;;;;;;;18.52;8.10;;;;;;;;;;5085271;28;20600;-78
2022/06/13 04:46:20;;;;;;;18.00;7.15;;;;;;;;;;5084287;28;20083;-78
2022/06/13 04:48:48;;;;;;;19.80;7.90;;;;;;;;;;5073602;28;20477;-78
2022/06/13 04:51:26;;;;;;;23.50;8.48;;;;;;;;;;5086970;28;20471;-78
2022/06/13 04:54:01;;;;;;;20.02;6.93;;;;;;;;;;5074197;28;20051;-77
2022/06/13 04:56:28;;;;;;;21.05;7.32;;;;;;;;;;5081998;27;20717;-77
2022/06/13 04:58:55;;;;;;;20.30;8.15;;;;;;;;;;5087074;28;20262;-78
2022/06/13 05:01:25;;;;;;;;;;;;;;;;;;5107749;27;20051;-78
2022/06/13 05:03:53;;;;;;;24.10;7.68;;;;;;;;;;5098237;28;49470;-79
2022/06/13 05:06:29;;;;;;;22.35;7.65;;;;;;;;;;5102042;27;20060;-79
2022/06/13 05:08:57;;;;;;;23.33;7.90;;;;;;;;;;5073347;28;20052;-79
2022/06/13 05:11:26;;;;;;;25.30;7.63;;;;;;;;;;5079525;27;20046;-79
2022/06/13 05:13:56;;;;;;;19.08;7.03;;;;;;;;;;5068427;28;20055;-79
2022/06/13 05:16:41;;;;;;;18.23;7.47;;;;;;;;;;5100090;28;20135;-78
2022/06/13 05:19:11;;;;;;;17.58;7.22;;;;;;;;;;5072683;28;20137;-78
2022/06/13 05:22:03;;;;;;;23.98;7.88;;;;;;;;;;5078365;28;20052;-78
2022/06/13 05:24:32;;;;;;;19.45;7.43;;;;;;;;;;5075052;28;20051;-78
2022/06/13 05:27:06;;;;;;;19.90;6.95;;;;;;;;;;5076067;28;20506;-78
2022/06/13 05:29:33;;;;;;;19.67;7.60;;;;;;;;;;5077408;28;20136;-78
2022/06/13 05:31:59;;;;;;;20.48;6.55;;;;;;;;;;5093354;27;20053;-78
2022/06/13 05:34:34;;;;;;;18.75;6.07;;;;;;;;;;5097727;28;20139;-78
2022/06/13 05:37:00;;;;;;;20.20;7.25;;;;;;;;;;5073979;28;20143;-79
2022/06/13 05:39:27;;;;;;;23.08;8.10;;;;;;;;;;5080568;28;20054;-78
2022/06/13 05:41:53;;;;;;;17.85;6.60;;;;;;;;;;5075892;28;20137;-78
2022/06/13 05:44:19;;;;;;;25.10;6.30;;;;;;;;;;5076545;27;20050;-78
2022/06/13 05:46:46;;;;;;;20.67;6.28;;;;;;;;;;5096780;28;20511;-79
2022/06/13 05:49:13;;;;;;;17.10;5.80;;;;;;;;;;5080943;28;20052;-78
2022/06/13 05:51:39;;;;;;;17.33;5.28;;;;;;;;;;5095458;28;20058;-78
2022/06/13 05:54:08;;;;;;;15.20;4.88;;;;;;;;;;5076410;28;21199;-78
2022/06/13 05:56:35;;;;;;;11.52;4.10;;;;;;;;;;5076731;28;20494;-79
2022/06/13 05:59:01;;;;;;;16.40;4.55;;;;;;;;;;5075902;28;20527;-78
2022/06/13 06:01:28;;;;;;;19.08;3.97;;;;;;;;;;5091231;28;20045;-78
2022/06/13 06:03:54;;;;;;;11.00;3.45;;;;;;;;;;5090050;27;20059;-78
2022/06/13 06:06:25;;;;;;;9.32;3.25;;;;;;;;;;5083283;28;20066;-78
2022/06/13 06:08:54;;;;;;;14.45;3.60;;;;;;;;;;5078715;28;20052;-78
2022/06/13 06:11:24;;;;;;;13.18;2.45;;;;;;;;;;5091899;28;20328;-78
2022/06/13 06:13:51;;;;;;;;;;;;;;;;;;5072143;28;20135;-78
2022/06/13 06:16:19;;;;;;;9.23;2.10;;;;;;;;;;5098807;28;47395;-78
2022/06/13 06:18:47;;;;;;;7.15;1.80;;;;;;;;;;5076835;28;20072;-78
2022/06/13 06:21:15;;;;;;;9.02;2.08;;;;;;;;;;5080162;28;20145;-78
2022/06/13 06:23:42;;;;;;;6.35;1.88;;;;;;;;;;5069196;28;20064;-78
2022/06/13 06:26:16;;;;;;;9.82;2.78;;;;;;;;;;5085048;28;20107;-78
2022/06/13 06:28:43;;;;;;;8.52;1.98;;;;;;;;;;5081959;28;20078;-79
2022/06/13 06:31:10;;;;;;;8.35;2.05;;;;;;;;;;5095449;28;20084;-79
2022/06/13 06:33:36;;;;;;;6.85;1.48;;;;;;;;;;5080090;28;20080;-79
2022/06/13 06:36:04;;;;;;;6.20;1.73;;;;;;;;;;5077357;28;20947;-79
2022/06/13 06:38:30;;;;;;;8.93;1.80;;;;;;;;;;5080815;28;25082;-78
2022/06/13 06:40:57;;;;;;;8.68;1.77;;;;;;;;;;5079569;28;20135;-78
2022/06/13 06:43:23;;;;;;;6.63;1.50;;;;;;;;;;5067612;28;20508;-78
2022/06/13 06:45:50;;;;;;;7.55;1.98;;;;;;;;;;5070883;28;20129;-78
2022/06/13 06:48:18;;;;;;;8.55;1.90;;;;;;;;;;5105430;28;20052;-78
2022/06/13 06:50:46;;;;;;;11.45;2.08;;;;;;;;;;5087472;28;20051;-78
2022/06/13 06:53:12;;;;;;;7.03;1.98;;;;;;;;;;5087768;28;20105;-78
2022/06/13 07:01:11;;;;;;;4.97;1.67;;;;;;;;;;5082043;27;20063;-78
2022/06/13 07:03:38;;;;;;;6.15;1.73;;;;;;;;;;5077874;28;20047;-78
2022/06/13 07:06:06;;;;;;;7.43;1.58;;;;;;;;;;5109058;27;20854;-78
2022/06/13 07:08:33;;;;;;;7.88;1.40;;;;;;;;;;5096298;28;20080;-79
2022/06/13 07:13:56;;;;;;;8.73;1.40;;;;;;;;;;5101079;27;20066;-80
2022/06/13 07:16:22;;;;;;;5.47;1.58;;;;;;;;;;5085124;28;20502;-80
2022/06/13 07:18:48;;;;;;;6.80;1.33;;;;;;;;;;5080276;28;20056;-80
2022/06/13 07:21:15;;;;;;;6.85;1.67;;;;;;;;;;5096522;27;20538;-79
2022/06/13 07:23:42;;;;;;;5.70;1.60;;;;;;;;;;5078305;28;20060;-80
2022/06/13 07:26:10;;;;;;;6.07;1.42;;;;;;;;;;5096750;28;20137;-80
2022/06/13 07:28:36;;;;;;;8.35;1.40;;;;;;;;;;5104163;27;20071;-80
2022/06/13 07:31:03;;;;;;;4.55;0.98;;;;;;;;;;5087304;28;20055;-78
2022/06/13 07:33:29;;;;;;;7.13;1.10;;;;;;;;;;5072411;28;20488;-78
2022/06/13 07:35:56;;;;;;;5.80;1.35;;;;;;;;;;5089529;28;20059;-78
2022/06/13 07:38:22;;;;;;;6.03;1.20;;;;;;;;;;5092147;28;20048;-78
2022/06/13 07:40:50;;;;;;;4.68;1.25;;;;;;;;;;5076407;28;20609;-79
2022/06/13 07:43:22;;;;;;;6.20;1.10;;;;;;;;;;5091396;27;20588;-79
2022/06/13 07:45:49;;;;;;;5.03;1.15;;;;;;;;;;5078151;27;20059;-78
2022/06/13 07:48:24;;;;;;;4.22;1.00;;;;;;;;;;5093316;28;20092;-78
2022/06/13 07:50:50;;;;;;;7.53;1.20;;;;;;;;;;5073788;28;20164;-77
2022/06/13 07:53:17;;;;;;;7.38;1.30;;;;;;;;;;5091146;28;20048;-77
2022/06/13 07:56:03;;;;;;;4.72;1.30;;;;;;;;;;5101737;28;20056;-77
2022/06/13 07:58:34;;;;;;;4.60;0.80;;;;;;;;;;5093395;28;20045;-76
2022/06/13 08:01:01;;;;;;;5.43;1.42;;;;;;;;;;5093381;27;20573;-77
2022/06/13 08:03:30;;;;;;;8.38;1.38;;;;;;;;;;5099634;28;20527;-78
2022/06/13 08:05:57;;;;;;;6.03;1.00;;;;;;;;;;5098402;27;21316;-77
2022/06/13 08:08:24;;;;;;;8.10;1.08;;;;;;;;;;5079955;28;20059;-78
2022/06/13 08:10:51;;;;;;;6.45;1.33;;;;;;;;;;5080918;27;20526;-78
2022/06/13 08:13:19;;;;;;;6.28;1.33;;;;;;;;;;5075684;28;20055;-77
2022/06/13 08:15:45;;;;;;;5.03;1.00;;;;;;;;;;5073777;28;20056;-78
2022/06/13 08:18:13;;;;;;;7.65;1.40;;;;;;;;;;5070992;28;20079;-77
2022/06/13 08:20:40;;;;;;;5.43;1.10;;;;;;;;;;5074104;28;20048;-77
2022/06/13 08:23:08;;;;;;;3.20;1.02;;;;;;;;;;5075871;28;20564;-77
2022/06/13 08:25:36;;;;;;;5.60;1.35;;;;;;;;;;5098434;28;20151;-77
2022/06/13 08:28:03;;;;;;;8.30;1.65;;;;;;;;;;5071778;28;20135;-77
2022/06/13 08:30:36;;;;;;;7.40;1.27;;;;;;;;;;5090418;28;20880;-77
2022/06/13 08:33:03;;;;;;;5.72;1.23;;;;;;;;;;5079347;28;20054;-77
2022/06/13 08:35:29;;;;;;;4.20;0.95;;;;;;;;;;5091055;27;20722;-76
2022/06/13 08:38:03;;;;;;;6.78;1.20;;;;;;;;;;5085289;27;20662;-77
2022/06/13 08:40:34;;;;;;;7.38;1.30;;;;;;;;;;5065694;28;20048;-76
2022/06/13 08:43:12;;;;;;;4.05;0.85;;;;;;;;;;5075484;28;20060;-76
2022/06/13 08:45:41;;;;;;;4.43;1.02;;;;;;;;;;5082547;27;20052;-76
2022/06/13 08:48:11;;;;;;;5.03;0.90;;;;;;;;;;5090296;28;20099;-76
2022/06/13 08:50:48;;;;;;;5.68;1.20;;;;;;;;;;5083284;28;20048;-76
2022/06/13 08:53:26;;;;;;;6.18;1.40;;;;;;;;;;5096650;27;20526;-76
2022/06/13 08:55:55;;;;;;;5.57;1.00;;;;;;;;;;5070169;28;20523;-76
2022/06/13 08:58:28;;;;;;;30.45;16.98;;;;;;;;;;5067132;28;20052;-76
2022/06/13 09:00:56;;;;;;;5.63;1.20;;;;;;;;;;5084974;28;20056;-76
2022/06/13 09:03:45;;;;;;;5.35;1.13;;;;;;;;;;5072013;28;20522;-77
2022/06/13 09:06:15;;;;;;;5.72;1.23;;;;;;;;;;5071636;28;20872;-77
2022/06/13 09:08:48;;;;;;;4.55;0.80;;;;;;;;;;5098055;27;20092;-77
2022/06/13 09:11:38;;;;;;;4.10;1.13;;;;;;;;;;5079570;28;20056;-77
2022/06/13 09:14:25;;;;;;;8.23;1.25;;;;;;;;;;5078273;28;20051;-77
2022/06/13 09:17:17;;;;;;;4.18;1.38;;;;;;;;;;5049413;27;20048;-77
2022/06/13 09:19:55;;;;;;;6.28;1.10;;;;;;;;;;5093677;27;20430;-76
2022/06/13 09:22:25;;;;;;;4.63;1.20;;;;;;;;;;5094407;28;20109;-77
2022/06/13 09:24:52;;;;;;;;;;;;;;;;;;5079860;28;20055;-77
2022/06/13 09:27:29;;;;;;;4.85;1.20;;;;;;;;;;5067503;28;48634;-77
2022/06/13 09:30:03;;;;;;;3.55;1.00;;;;;;;;;;5092169;28;20052;-77
2022/06/13 09:32:35;;;;;;;;;;;;;;;;;;5073926;28;20211;-77
2022/06/13 09:35:12;;;;;;;3.85;0.90;;;;;;;;;;5094135;28;48349;-77
2022/06/13 09:37:43;;;;;;;5.60;0.93;;;;;;;;;;5093503;28;20611;-77
2022/06/13 09:40:13;;;;;;;6.38;1.10;;;;;;;;;;5071565;28;20137;-77
2022/06/13 09:42:46;;;;;;;8.00;1.60;;;;;;;;;;5095353;28;21074;-77
2022/06/13 09:45:22;;;;;;;6.18;0.93;;;;;;;;;;5088389;28;20072;-77
2022/06/13 09:47:48;;;;;;;3.40;0.90;;;;;;;;;;5078805;28;20106;-77
2022/06/13 09:50:14;;;;;;;4.47;1.00;;;;;;;;;;5088219;28;20892;-77
2022/06/13 09:52:41;;;;;;;3.45;0.95;;;;;;;;;;5099799;28;20106;-77
2022/06/13 09:55:24;;;;;;;5.88;1.05;;;;;;;;;;5071018;28;20044;-77
2022/06/13 09:57:50;;;;;;;5.18;1.17;;;;;;;;;;5073458;28;20545;-77
2022/06/13 10:00:22;;;;;;;5.03;1.20;;;;;;;;;;5089838;28;20056;-77
2022/06/13 10:03:01;;;;;;;3.63;0.93;;;;;;;;;;5088145;28;20551;-77
2022/06/13 10:05:38;;;;;;;4.38;1.10;;;;;;;;;;5067796;28;20056;-76
2022/06/13 10:08:04;;;;;;;5.55;1.02;;;;;;;;;;5072705;28;20048;-77
2022/06/13 10:10:36;;;;;;;4.53;1.00;;;;;;;;;;5074727;28;20129;-77
2022/06/13 10:13:02;;;;;;;5.18;1.08;;;;;;;;;;5084450;28;20830;-77
2022/06/13 10:15:46;;;;;;;4.63;1.30;;;;;;;;;;5081855;28;20052;-77
2022/06/13 10:18:35;;;;;;;4.55;1.35;;;;;;;;;;5066799;28;20052;-77
2022/06/13 10:21:27;;;;;;;6.75;1.33;;;;;;;;;;5091045;28;20074;-77
2022/06/13 10:23:54;;;;;;;8.73;1.23;;;;;;;;;;5051985;28;20756;-77
2022/06/13 10:26:29;;;;;;;5.10;1.20;;;;;;;;;;5088057;27;20127;-77
2022/06/13 10:29:13;;;;;;;8.57;1.20;;;;;;;;;;5091077;28;20061;-77
2022/06/13 10:31:57;;;;;;;7.78;1.23;;;;;;;;;;5084583;28;20056;-77
2022/06/13 10:34:32;;;;;;;6.32;1.13;;;;;;;;;;5092445;27;20048;-77
2022/06/13 10:37:14;;;;;;;5.72;1.33;;;;;;;;;;5076301;28;20044;-77
2022/06/13 10:39:41;;;;;;;4.80;1.23;;;;;;;;;;5093001;28;20055;-77
2022/06/13 10:42:12;;;;;;;5.95;1.15;;;;;;;;;;5071788;28;20071;-77
2022/06/13 10:44:39;;;;;;;4.65;1.15;;;;;;;;;;5074967;28;20056;-77
2022/06/13 10:47:19;;;;;;;5.03;1.00;;;;;;;;;;5079882;28;20135;-77
2022/06/13 10:49:49;;;;;;;5.28;1.30;;;;;;;;;;5082268;28;20865;-78
2022/06/13 10:52:21;;;;;;;10.75;1.48;;;;;;;;;;5097419;28;20048;-77
2022/06/13 10:54:56;;;;;;;6.53;1.13;;;;;;;;;;5080044;28;20140;-77
2022/06/13 10:57:43;;;;;;;7.10;1.30;;;;;;;;;;5079449;28;20059;-77
2022/06/13 11:00:12;;;;;;;5.35;0.90;;;;;;;;;;5105981;28;20118;-77
2022/06/13 11:02:38;;;;;;;6.70;1.23;;;;;;;;;;5084203;28;20056;-78
2022/06/13 11:05:16;;;;;;;5.88;1.13;;;;;;;;;;5101267;27;20059;-77
2022/06/13 11:07:44;;;;;;;5.22;1.05;;;;;;;;;;5095539;27;20115;-77
2022/06/13 11:10:29;;;;;;;4.10;1.23;;;;;;;;;;5098503;28;20465;-77
2022/06/13 11:12:56;;;;;;;5.50;1.10;;;;;;;;;;5073181;28;20052;-77
2022/06/13 11:24:09;;;;;;;6.50;1.00;;;;;;;;;;5083575;28;20564;-76
2022/06/13 11:29:22;;;;;;;3.00;0.77;;;;;;;;;;5098269;27;20138;-76
2022/06/13 11:31:49;;;;;;;5.38;1.30;;;;;;;;;;5082989;28;20143;-76
2022/06/13 11:34:38;;;;;;;3.42;0.90;;;;;;;;;;5072951;28;20059;-77
2022/06/13 11:37:13;;;;;;;5.47;1.00;;;;;;;;;;5097226;27;20169;-76
2022/06/13 11:39:44;;;;;;;3.58;1.10;;;;;;;;;;5086420;28;20074;-76
2022/06/13 11:42:19;;;;;;;4.07;1.00;;;;;;;;;;5099289;28;20925;-76
2022/06/13 11:44:48;;;;;;;4.38;1.00;;;;;;;;;;5070782;28;20528;-76
2022/06/13 11:47:16;;;;;;;4.60;1.10;;;;;;;;;;5087999;28;20059;-76
2022/06/13 11:49:44;;;;;;;4.10;1.08;;;;;;;;;;5092938;28;20146;-76
2022/06/13 11:52:13;;;;;;;3.50;1.00;;;;;;;;;;5091989;28;20521;-76
2022/06/13 11:54:46;;;;;;;6.00;1.30;;;;;;;;;;5083250;28;20052;-76
2022/06/13 11:57:18;;;;;;;3.45;0.98;;;;;;;;;;5091298;28;20513;-76
2022/06/13 11:59:49;;;;;;;4.70;1.00;;;;;;;;;;5073807;28;20061;-76
2022/06/13 12:02:21;;;;;;;4.18;0.80;;;;;;;;;;5085392;28;20148;-76
2022/06/13 12:04:48;;;;;;;3.70;1.00;;;;;;;;;;5084924;28;20066;-76
2022/06/13 12:07:22;;;;;;;4.88;1.13;;;;;;;;;;5088409;28;20048;-76
2022/06/13 12:09:53;;;;;;;4.93;1.00;;;;;;;;;;5088352;28;20459;-76
2022/06/13 12:12:19;;;;;;;5.07;1.13;;;;;;;;;;5083510;27;20130;-76
2022/06/13 12:14:45;;;;;;;5.00;1.13;;;;;;;;;;5085694;28;20554;-76
2022/06/13 12:17:17;;;;;;;5.00;1.15;;;;;;;;;;5085271;28;20055;-76
2022/06/13 12:20:03;;;;;;;5.85;1.00;;;;;;;;;;5068161;28;20517;-76
2022/06/13 12:22:48;;;;;;;3.90;0.93;;;;;;;;;;5089728;27;20082;-76
2022/06/13 12:25:17;;;;;;;4.18;0.88;;;;;;;;;;5089859;27;20048;-76
2022/06/13 12:27:47;;;;;;;5.95;1.02;;;;;;;;;;5081679;28;20054;-76
2022/06/13 12:30:33;;;;;;;4.97;1.00;;;;;;;;;;5079212;28;20135;-77
2022/06/13 12:33:05;;;;;;;5.13;1.00;;;;;;;;;;5097384;28;20143;-77
2022/06/13 12:35:51;;;;;;;4.70;1.05;;;;;;;;;;5092458;27;20052;-76
2022/06/13 12:38:23;;;;;;;3.75;1.08;;;;;;;;;;5083073;28;20151;-75
2022/06/13 12:40:56;;;;;;;4.72;0.98;;;;;;;;;;5082773;28;20048;-77
2022/06/13 12:43:41;;;;;;;5.93;0.90;;;;;;;;;;5079560;28;20080;-77
2022/06/13 12:46:26;;;;;;;4.78;0.90;;;;;;;;;;5101597;27;20059;-75
2022/06/13 12:48:53;;;;;;;3.67;0.88;;;;;;;;;;5091603;27;20121;-75
2022/06/13 12:51:33;;;;;;;5.10;0.98;;;;;;;;;;5071612;28;20057;-75
2022/06/13 12:54:17;;;;;;;4.43;0.93;;;;;;;;;;5088123;28;20476;-76
2022/06/13 12:56:47;;;;;;;5.82;1.00;;;;;;;;;;5090359;28;20135;-76
2022/06/13 12:59:16;;;;;;;6.22;1.20;;;;;;;;;;5079389;27;20060;-76
2022/06/13 13:01:52;;;;;;;6.18;1.17;;;;;;;;;;5094975;27;20523;-76
2022/06/13 13:04:38;;;;;;;4.40;1.10;;;;;;;;;;5087094;28;20852;-76
2022/06/13 13:07:08;;;;;;;4.60;0.95;;;;;;;;;;5101697;27;20083;-76
2022/06/13 13:09:58;;;;;;;4.18;1.10;;;;;;;;;;5093053;28;20648;-77
2022/06/13 13:12:39;;;;;;;4.45;1.17;;;;;;;;;;5074951;28;20088;-76
2022/06/13 13:15:11;;;;;;;5.13;1.02;;;;;;;;;;5077168;28;20058;-76
2022/06/13 13:17:47;;;;;;;6.03;0.90;;;;;;;;;;5083463;28;20051;-76
2022/06/13 13:20:42;;;;;;;2.83;0.85;;;;;;;;;;5095963;28;20775;-75
2022/06/13 13:23:14;;;;;;;4.63;0.90;;;;;;;;;;5094083;28;20533;-76
2022/06/13 13:25:59;;;;;;;3.78;0.90;;;;;;;;;;5090955;27;20044;-76
2022/06/13 13:28:41;;;;;;;4.78;1.05;;;;;;;;;;5099992;27;20056;-77
2022/06/13 13:31:21;;;;;;;4.07;1.08;;;;;;;;;;5104370;28;20514;-77
2022/06/13 13:33:49;;;;;;;5.57;1.10;;;;;;;;;;5100877;28;20052;-77
2022/06/13 13:36:16;;;;;;;4.13;0.90;;;;;;;;;;5100879;28;20105;-77
2022/06/13 13:38:44;;;;;;;6.95;1.00;;;;;;;;;;5074030;28;20045;-77
2022/06/13 13:41:18;;;;;;;3.45;0.90;;;;;;;;;;5066731;28;21495;-77
2022/06/13 13:43:50;;;;;;;6.22;1.05;;;;;;;;;;5093453;28;20846;-77
2022/06/13 13:46:20;;;;;;;5.20;0.95;;;;;;;;;;5091058;27;20139;-77
2022/06/13 13:48:55;;;;;;;5.38;1.20;;;;;;;;;;5072268;28;20052;-75
2022/06/13 13:51:24;;;;;;;5.57;1.35;;;;;;;;;;5098765;28;20052;-76
2022/06/13 13:53:54;;;;;;;3.85;0.93;;;;;;;;;;5075031;27;22022;-76
2022/06/13 13:56:41;;;;;;;6.05;0.90;;;;;;;;;;5088291;28;20052;-76
2022/06/13 13:59:10;;;;;;;5.05;1.10;;;;;;;;;;5069905;28;20135;-75
2022/06/13 14:01:44;;;;;;;3.45;1.00;;;;;;;;;;5092034;28;20418;-75
2022/06/13 14:04:23;;;;;;;5.35;1.10;;;;;;;;;;5073655;28;20635;-76
2022/06/13 14:07:08;;;;;;;5.72;1.30;;;;;;;;;;5090680;28;20591;-75
2022/06/13 14:09:35;;;;;;;4.43;0.90;;;;;;;;;;5098499;27;20052;-75
2022/06/13 14:12:02;;;;;;;7.60;1.42;;;;;;;;;;5102204;28;20057;-75
2022/06/13 14:14:37;;;;;;;4.25;1.00;;;;;;;;;;5091581;28;20937;-75
2022/06/13 14:17:10;;;;;;;4.80;1.00;;;;;;;;;;5085627;28;20052;-75
2022/06/13 14:19:36;;;;;;;5.22;1.10;;;;;;;;;;5080627;28;20139;-75
2022/06/13 14:22:17;;;;;;;7.10;1.40;;;;;;;;;;5069050;28;20584;-75
2022/06/13 14:24:52;;;;;;;4.78;1.00;;;;;;;;;;5092923;28;20080;-75
2022/06/13 14:27:19;;;;;;;7.38;1.20;;;;;;;;;;5076342;28;20054;-75
2022/06/13 14:29:47;;;;;;;6.20;1.20;;;;;;;;;;5076900;28;20059;-75
2022/06/13 14:32:31;;;;;;;5.85;1.27;;;;;;;;;;5072348;28;20052;-75
2022/06/13 14:35:11;;;;;;;7.63;1.25;;;;;;;;;;5093424;28;20049;-75
2022/06/13 14:37:45;;;;;;;3.47;0.98;;;;;;;;;;5091925;28;20052;-75
2022/06/13 14:40:28;;;;;;;5.85;1.17;;;;;;;;;;5093557;28;20052;-75
2022/06/13 14:43:05;;;;;;;5.85;1.23;;;;;;;;;;5091545;28;20052;-75
2022/06/13 14:45:49;;;;;;;6.30;1.23;;;;;;;;;;5078404;28;20060;-75
2022/06/13 14:48:28;;;;;;;5.43;1.17;;;;;;;;;;5072109;28;21012;-76
2022/06/13 14:50:59;;;;;;;4.65;1.30;;;;;;;;;;5067066;28;20052;-76
2022/06/13 14:53:28;;;;;;;4.75;1.10;;;;;;;;;;5088996;28;20511;-76
2022/06/13 14:56:07;;;;;;;6.13;1.20;;;;;;;;;;5099272;28;20122;-76
2022/06/13 14:58:42;;;;;;;4.93;1.20;;;;;;;;;;5094484;28;20309;-76
2022/06/13 15:01:30;;;;;;;6.07;1.23;;;;;;;;;;5089672;28;20064;-76
2022/06/13 15:04:03;;;;;;;4.45;0.90;;;;;;;;;;5093762;28;20059;-76
2022/06/13 15:06:38;;;;;;;5.65;1.10;;;;;;;;;;5062826;28;20136;-76
2022/06/13 15:09:12;;;;;;;4.28;1.00;;;;;;;;;;5089339;28;20055;-76
2022/06/13 15:11:45;;;;;;;5.10;1.23;;;;;;;;;;5096890;28;20056;-75
2022/06/13 15:14:16;;;;;;;6.88;1.30;;;;;;;;;;5063898;28;20495;-76
2022/06/13 15:16:44;;;;;;;4.45;1.10;;;;;;;;;;5090240;28;20083;-77
2022/06/13 15:19:11;;;;;;;5.03;1.10;;;;;;;;;;5083360;28;20140;-77
2022/06/13 15:21:42;;;;;;;5.97;1.17;;;;;;;;;;5094400;28;20131;-77
2022/06/13 15:24:11;;;;;;;7.45;1.33;;;;;;;;;;5096516;27;20148;-77
2022/06/13 15:26:37;;;;;;;4.75;1.30;;;;;;;;;;5091674;27;20056;-77
2022/06/13 15:29:04;;;;;;;5.68;1.20;;;;;;;;;;5088053;28;20080;-77